Time;durP1;ratioP1;P1;durP2;ratioP2;P2;SDS_P1;SDS_P2;PMS_P1;PMS_P2;Temp;Humidity;BMP_temperature;BMP_pressure;BME280_temperature;BME280_humidity;BME280_pressure;Samples;Min_cycle;Max_cycle;Signal;HPM_P1;HPM_P2
2022/11/24 00:02:24;;;;;;;11.45;3.65;;;10.60;80.30;;;;;;5034256;28;20103;-68
2022/11/24 00:04:50;;;;;;;13.50;3.83;;;10.70;80.30;;;;;;5035837;28;20101;-68
2022/11/24 00:07:15;;;;;;;9.32;3.10;;;10.60;80.20;;;;;;5034528;28;20083;-68
2022/11/24 00:09:41;;;;;;;14.82;3.45;;;10.60;80.20;;;;;;5035704;28;20025;-68
2022/11/24 00:12:07;;;;;;;12.73;3.53;;;10.60;80.20;;;;;;5033052;28;20025;-68
2022/11/24 00:14:32;;;;;;;12.43;4.30;;;10.60;80.20;;;;;;5033315;28;20033;-68
2022/11/24 00:16:58;;;;;;;14.68;3.03;;;10.60;80.30;;;;;;5034087;28;20473;-68
2022/11/24 00:19:24;;;;;;;13.82;2.97;;;10.60;80.30;;;;;;5034695;28;20053;-68
2022/11/24 00:21:49;;;;;;;12.60;3.15;;;10.60;80.30;;;;;;5033583;28;20032;-68
2022/11/24 00:24:15;;;;;;;18.00;3.88;;;10.70;80.20;;;;;;5035579;28;20025;-68
2022/11/24 00:26:42;;;;;;;11.43;3.28;;;10.70;80.80;;;;;;5049190;28;20025;-68
2022/11/24 00:29:08;;;;;;;11.38;2.88;;;10.70;80.10;;;;;;5035594;28;20167;-68
2022/11/24 00:31:41;;;;;;;10.00;3.10;;;10.70;80.10;;;;;;5033724;28;20025;-68
2022/11/24 00:34:11;;;;;;;16.55;3.70;;;10.70;80.10;;;;;;5050301;28;20029;-68
2022/11/24 00:36:38;;;;;;;11.82;3.60;;;10.60;80.00;;;;;;5034315;28;20029;-68
2022/11/24 00:39:11;;;;;;;14.23;3.30;;;10.60;80.10;;;;;;5034802;28;20062;-68
2022/11/24 00:41:37;;;;;;;12.80;2.92;;;10.60;80.10;;;;;;5033780;28;20029;-68
2022/11/24 00:44:03;;;;;;;13.32;3.30;;;10.60;80.20;;;;;;5033044;28;20037;-68
2022/11/24 00:46:29;;;;;;;12.25;3.08;;;10.60;80.10;;;;;;5035254;28;20370;-68
2022/11/24 00:48:56;;;;;;;11.45;3.63;;;10.60;80.10;;;;;;5033482;28;20029;-68
2022/11/24 00:51:25;;;;;;;12.50;2.90;;;10.60;80.00;;;;;;5035549;28;20068;-68
2022/11/24 00:53:52;;;;;;;9.75;2.97;;;10.60;80.00;;;;;;5034410;28;20125;-68
2022/11/24 00:56:18;;;;;;;12.30;2.67;;;10.60;80.00;;;;;;5046693;28;20048;-68
2022/11/24 00:58:44;;;;;;;12.13;3.60;;;10.70;80.00;;;;;;5028395;28;20037;-68
2022/11/24 01:01:13;;;;;;;11.10;3.40;;;10.70;79.90;;;;;;5032873;28;20438;-68
2022/11/24 01:03:39;;;;;;;15.77;3.38;;;10.70;80.50;;;;;;5033219;28;20438;-68
2022/11/24 01:06:11;;;;;;;12.45;3.30;;;10.70;79.80;;;;;;5034377;28;20354;-68
2022/11/24 01:08:38;;;;;;;11.43;3.15;;;10.70;79.80;;;;;;5034108;28;20021;-69
2022/11/24 01:11:13;;;;;;;13.05;3.55;;;10.70;79.80;;;;;;5032265;28;20098;-68
2022/11/24 01:13:39;;;;;;;14.38;2.97;;;10.70;79.70;;;;;;5033760;28;20047;-68
2022/11/24 01:16:05;;;;;;;12.63;2.92;;;10.70;79.70;;;;;;5033696;28;20064;-68
2022/11/24 01:18:31;;;;;;;9.45;2.85;;;10.70;79.70;;;;;;5033831;28;20052;-68
2022/11/24 01:20:57;;;;;;;13.32;3.17;;;10.70;79.70;;;;;;5017138;28;20453;-68
2022/11/24 01:23:22;;;;;;;11.18;3.38;;;10.70;79.60;;;;;;5032812;28;20025;-68
2022/11/24 01:25:48;;;;;;;12.07;3.03;;;10.70;79.50;;;;;;5033521;28;20024;-68
2022/11/24 01:28:14;;;;;;;14.10;2.95;;;10.70;79.50;;;;;;5033655;28;20460;-68
2022/11/24 01:30:40;;;;;;;15.05;3.03;;;10.70;79.50;;;;;;5034494;28;20029;-68
2022/11/24 01:33:05;;;;;;;12.77;2.45;;;10.70;79.50;;;;;;5033114;28;20358;-68
2022/11/24 01:35:31;;;;;;;11.20;2.42;;;10.70;79.40;;;;;;5032525;28;20041;-68
2022/11/24 01:37:57;;;;;;;13.38;3.75;;;10.70;79.40;;;;;;5032812;28;20026;-68
2022/11/24 01:40:22;;;;;;;14.40;2.70;;;10.70;79.40;;;;;;5034426;28;20410;-68
2022/11/24 01:42:50;;;;;;;10.90;2.78;;;10.70;79.30;;;;;;5031961;28;20021;-68
2022/11/24 01:45:40;;;;;;;13.80;2.80;;;10.70;79.30;;;;;;5026361;28;20022;-68
2022/11/24 01:48:13;;;;;;;11.35;2.53;;;10.70;79.20;;;;;;5031142;28;20473;-68
2022/11/24 01:50:40;;;;;;;8.63;2.55;;;10.70;79.30;;;;;;5028282;28;20075;-68
2022/11/24 01:53:07;;;;;;;15.57;2.75;;;10.70;79.30;;;;;;5033683;28;20037;-68
2022/11/24 01:55:36;;;;;;;12.38;2.78;;;10.70;79.40;;;;;;5011824;28;20030;-68
2022/11/24 01:58:11;;;;;;;10.57;2.92;;;10.70;79.30;;;;;;5032633;28;20116;-69
2022/11/24 02:00:39;;;;;;;12.55;3.33;;;10.70;79.30;;;;;;5032399;28;20036;-68
2022/11/24 02:03:05;;;;;;;11.85;2.58;;;10.70;79.30;;;;;;5031986;28;20032;-68
2022/11/24 02:05:40;;;;;;;12.75;2.83;;;10.70;79.20;;;;;;5032637;28;20171;-68
2022/11/24 02:08:12;;;;;;;12.57;2.65;;;10.70;79.20;;;;;;5033457;28;20362;-68
2022/11/24 02:10:38;;;;;;;12.35;2.72;;;10.70;79.20;;;;;;5033267;28;20029;-68
2022/11/24 02:13:04;;;;;;;12.30;3.05;;;10.70;79.10;;;;;;5036789;28;20060;-69
2022/11/24 02:15:31;;;;;;;12.50;2.83;;;10.60;79.10;;;;;;5036701;28;20033;-68
2022/11/24 02:17:57;;;;;;;11.98;2.80;;;10.70;79.20;;;;;;5037329;28;20128;-68
2022/11/24 02:20:24;;;;;;;10.32;2.95;;;10.60;79.10;;;;;;5035826;28;20128;-68
2022/11/24 02:23:08;;;;;;;13.82;3.90;;;10.60;79.10;;;;;;5033015;28;20025;-68
2022/11/24 02:25:43;;;;;;;9.25;1.98;;;10.60;79.10;;;;;;5026128;28;20029;-68
2022/11/24 02:28:13;;;;;;;9.55;2.50;;;10.60;79.10;;;;;;5024989;28;20026;-68
2022/11/24 02:30:39;;;;;;;18.05;2.97;;;10.60;79.10;;;;;;5047757;28;20040;-68
2022/11/24 02:33:04;;;;;;;17.15;3.45;;;10.60;79.00;;;;;;5035541;28;20026;-68
2022/11/24 02:35:31;;;;;;;12.20;2.85;;;10.60;79.00;;;;;;5036506;28;20454;-68
2022/11/24 02:37:56;;;;;;;9.75;2.40;;;10.60;78.90;;;;;;5052667;28;20021;-68
2022/11/24 02:40:25;;;;;;;15.93;3.92;;;10.60;78.90;;;;;;5036103;28;20030;-68
2022/11/24 02:42:55;;;;;;;16.02;3.33;;;10.70;79.00;;;;;;5033470;28;20025;-68
2022/11/24 02:45:22;;;;;;;9.32;2.58;;;10.60;78.90;;;;;;5018191;28;20513;-68
2022/11/24 02:47:47;;;;;;;13.77;2.72;;;10.60;78.90;;;;;;5037157;28;20049;-68
2022/11/24 02:50:13;;;;;;;15.48;3.25;;;10.60;78.90;;;;;;5033859;28;20065;-68
2022/11/24 02:52:40;;;;;;;13.75;2.70;;;10.60;78.80;;;;;;5035060;28;20076;-69
2022/11/24 02:55:06;;;;;;;13.93;3.38;;;10.60;78.80;;;;;;5035789;28;20438;-68
2022/11/24 02:57:31;;;;;;;12.20;3.38;;;10.60;78.80;;;;;;5051505;28;20037;-69
2022/11/24 02:59:57;;;;;;;16.38;3.67;;;10.60;78.70;;;;;;5036396;28;20021;-69
2022/11/24 03:02:23;;;;;;;11.35;3.08;;;10.60;78.70;;;;;;5033302;28;20060;-68
2022/11/24 03:04:48;;;;;;;14.07;3.08;;;10.60;78.70;;;;;;5036168;28;20151;-69
2022/11/24 03:07:14;;;;;;;9.48;3.00;;;10.60;78.70;;;;;;5035932;28;20079;-69
2022/11/24 03:09:40;;;;;;;10.10;2.55;;;10.60;78.70;;;;;;5035943;28;20029;-68
2022/11/24 03:12:06;;;;;;;11.85;2.55;;;10.60;78.70;;;;;;5033183;28;20025;-68
2022/11/24 03:14:31;;;;;;;11.88;2.67;;;10.60;78.70;;;;;;5035768;28;20029;-69
2022/11/24 03:16:57;;;;;;;9.23;2.65;;;10.60;78.70;;;;;;5033711;28;20045;-68
2022/11/24 03:19:23;;;;;;;11.93;3.03;;;10.60;78.80;;;;;;5036030;28;20037;-68
2022/11/24 03:21:48;;;;;;;14.05;3.08;;;10.60;78.80;;;;;;5033708;28;20394;-68
2022/11/24 03:24:15;;;;;;;9.10;2.53;;;10.50;78.70;;;;;;5042282;28;20049;-68
2022/11/24 03:26:41;;;;;;;10.13;2.40;;;10.60;78.80;;;;;;5035710;28;20144;-68
2022/11/24 03:29:07;;;;;;;8.73;2.85;;;10.50;78.70;;;;;;5035250;28;20107;-68
2022/11/24 03:31:33;;;;;;;12.48;3.03;;;10.50;78.70;;;;;;5032924;28;20041;-69
2022/11/24 03:33:59;;;;;;;15.55;2.83;;;10.50;78.70;;;;;;5036139;28;20025;-68
2022/11/24 03:36:25;;;;;;;11.98;2.63;;;10.50;78.70;;;;;;5035241;28;20474;-68
2022/11/24 03:38:50;;;;;;;15.27;3.80;;;10.50;78.70;;;;;;5036398;28;20435;-68
2022/11/24 03:41:16;;;;;;;15.75;3.10;;;10.50;78.60;;;;;;5034788;28;20053;-68
2022/11/24 03:43:42;;;;;;;11.88;3.35;;;10.50;78.60;;;;;;5035262;28;20373;-68
2022/11/24 03:46:07;;;;;;;9.95;2.60;;;10.50;78.60;;;;;;5034848;28;20100;-68
2022/11/24 03:48:33;;;;;;;8.18;2.28;;;10.60;78.60;;;;;;5033160;28;20033;-68
2022/11/24 03:51:01;;;;;;;13.68;3.03;;;10.60;78.60;;;;;;5032482;28;20025;-68
2022/11/24 03:53:29;;;;;;;11.95;2.47;;;10.60;78.60;;;;;;5034282;28;20303;-68
2022/11/24 03:55:55;;;;;;;13.02;2.90;;;10.60;78.60;;;;;;5020798;28;20128;-68
2022/11/24 03:58:21;;;;;;;11.95;2.63;;;10.60;78.50;;;;;;5034580;28;20084;-68
2022/11/24 04:00:48;;;;;;;12.70;3.05;;;10.60;78.60;;;;;;5033980;28;20116;-68
2022/11/24 04:03:15;;;;;;;13.20;3.05;;;10.60;78.60;;;;;;5031703;28;20116;-68
2022/11/24 04:05:41;;;;;;;11.05;3.22;;;10.60;78.60;;;;;;5035713;28;20034;-68
2022/11/24 04:08:07;;;;;;;14.93;3.60;;;10.60;78.60;;;;;;5034441;28;20113;-68
2022/11/24 04:10:35;;;;;;;17.20;3.38;;;10.60;78.60;;;;;;5034827;28;20029;-68
2022/11/24 04:13:02;;;;;;;11.57;3.40;;;10.60;78.50;;;;;;5034262;28;20029;-68
2022/11/24 04:15:28;;;;;;;11.20;3.38;;;10.60;78.50;;;;;;5034617;28;20044;-68
2022/11/24 04:17:54;;;;;;;12.98;3.03;;;10.60;78.50;;;;;;5033288;28;20029;-68
2022/11/24 04:20:20;;;;;;;13.02;2.85;;;10.60;78.50;;;;;;5034758;28;20052;-68
2022/11/24 04:22:46;;;;;;;14.48;3.53;;;10.60;78.50;;;;;;5033715;28;20101;-68
2022/11/24 04:25:11;;;;;;;10.02;2.45;;;10.50;78.50;;;;;;5034510;28;20041;-68
2022/11/24 04:27:38;;;;;;;13.48;3.33;;;10.50;78.50;;;;;;5034283;28;20059;-68
2022/11/24 04:30:05;;;;;;;14.98;4.10;;;10.50;78.60;;;;;;5033935;28;20037;-68
2022/11/24 04:32:31;;;;;;;13.20;3.30;;;10.50;78.60;;;;;;5032790;28;20021;-68
2022/11/24 04:34:57;;;;;;;12.50;3.20;;;10.50;78.60;;;;;;5033160;28;20446;-68
2022/11/24 04:37:22;;;;;;;11.18;2.78;;;10.50;78.60;;;;;;5034036;28;20049;-68
2022/11/24 04:39:48;;;;;;;11.82;3.03;;;10.50;78.50;;;;;;5032764;28;20033;-68
2022/11/24 04:42:14;;;;;;;16.80;3.92;;;10.50;78.60;;;;;;5034101;28;20024;-68
2022/11/24 04:44:39;;;;;;;14.80;3.58;;;10.50;78.60;;;;;;5033301;28;20112;-68
2022/11/24 04:47:05;;;;;;;14.15;2.90;;;10.50;78.60;;;;;;5033822;28;20025;-68
2022/11/24 04:49:31;;;;;;;10.10;3.42;;;10.50;78.60;;;;;;5032351;28;20040;-68
2022/11/24 04:51:56;;;;;;;14.40;3.75;;;10.50;78.70;;;;;;5032796;28;20041;-68
2022/11/24 04:54:22;;;;;;;14.38;2.67;;;10.50;78.70;;;;;;5033527;28;20037;-68
2022/11/24 04:56:51;;;;;;;13.93;3.45;;;10.50;78.70;;;;;;5034823;28;20037;-68
2022/11/24 04:59:18;;;;;;;17.40;3.38;;;10.50;78.70;;;;;;5048241;28;20033;-68
2022/11/24 05:01:45;;;;;;;14.88;3.53;;;10.50;78.70;;;;;;5028514;28;20040;-68
2022/11/24 05:04:12;;;;;;;12.20;2.90;;;10.50;78.70;;;;;;5033170;28;20033;-68
2022/11/24 05:06:39;;;;;;;11.90;2.85;;;10.50;78.70;;;;;;5034656;28;20025;-68
2022/11/24 05:09:05;;;;;;;12.70;3.10;;;10.50;78.80;;;;;;5033066;28;20033;-68
2022/11/24 05:11:31;;;;;;;10.82;2.80;;;10.50;78.70;;;;;;5032784;28;20036;-68
2022/11/24 05:13:57;;;;;;;12.55;3.72;;;10.50;78.70;;;;;;5032817;28;20029;-68
2022/11/24 05:16:22;;;;;;;10.77;2.58;;;10.50;78.80;;;;;;5038582;28;20029;-68
2022/11/24 05:18:48;;;;;;;11.25;2.45;;;10.50;78.80;;;;;;5033213;28;20086;-68
2022/11/24 05:21:14;;;;;;;14.90;3.10;;;10.50;78.70;;;;;;5038574;28;20031;-68
2022/11/24 05:23:39;;;;;;;11.20;2.33;;;10.50;78.70;;;;;;5036294;28;20152;-68
2022/11/24 05:26:05;;;;;;;15.30;3.47;;;10.60;78.60;;;;;;5034522;28;20057;-69
2022/11/24 05:28:31;;;;;;;9.77;2.38;;;10.60;78.60;;;;;;5038559;28;20049;-68
2022/11/24 05:31:03;;;;;;;10.25;1.70;;;10.60;78.50;;;;;;5019558;28;20452;-69
2022/11/24 05:33:32;;;;;;;12.80;2.35;;;10.60;78.50;;;;;;5029223;28;20030;-68
2022/11/24 05:36:02;;;;;;;11.68;2.67;;;10.60;78.50;;;;;;5031284;28;20315;-68
2022/11/24 05:38:29;;;;;;;9.77;2.23;;;10.60;78.40;;;;;;5031638;28;20453;-68
2022/11/24 05:40:59;;;;;;;9.70;2.25;;;10.60;78.40;;;;;;5031337;28;20300;-68
2022/11/24 05:43:25;;;;;;;17.38;2.70;;;10.60;78.40;;;;;;5029216;28;20064;-68
2022/11/24 05:45:51;;;;;;;8.77;2.20;;;10.60;78.30;;;;;;5015122;28;20049;-68
2022/11/24 05:48:16;;;;;;;10.05;2.22;;;10.60;78.30;;;;;;5032229;28;20025;-68
2022/11/24 05:50:42;;;;;;;8.20;2.45;;;10.60;78.40;;;;;;5030292;28;20033;-68
2022/11/24 05:53:11;;;;;;;7.18;1.95;;;10.60;78.40;;;;;;5031010;28;20037;-68
2022/11/24 05:55:38;;;;;;;9.80;2.20;;;10.60;78.40;;;;;;5031154;28;20045;-68
2022/11/24 05:58:06;;;;;;;9.23;2.10;;;10.60;78.40;;;;;;5032118;28;20124;-69
2022/11/24 06:00:32;;;;;;;9.52;2.08;;;10.60;78.50;;;;;;5032752;28;20033;-69
2022/11/24 06:02:58;;;;;;;9.60;2.33;;;10.60;78.50;;;;;;5030603;28;20033;-69
2022/11/24 06:05:25;;;;;;;9.63;2.08;;;10.60;78.50;;;;;;5031274;28;20083;-69
2022/11/24 06:07:51;;;;;;;6.82;2.20;;;10.60;78.50;;;;;;5031140;28;20139;-70
2022/11/24 06:10:18;;;;;;;8.02;2.20;;;10.60;78.50;;;;;;5049369;28;20040;-69
2022/11/24 06:12:43;;;;;;;7.97;2.10;;;10.60;78.50;;;;;;5032663;28;20112;-70
2022/11/24 06:15:10;;;;;;;6.43;1.73;;;10.60;78.50;;;;;;5032147;28;20111;-69
2022/11/24 06:17:36;;;;;;;8.77;2.00;;;10.60;78.50;;;;;;5031958;28;20025;-69
2022/11/24 06:20:02;;;;;;;6.93;1.60;;;10.60;78.40;;;;;;5032614;28;20037;-69
2022/11/24 06:22:27;;;;;;;6.00;1.70;;;10.60;78.50;;;;;;5032203;28;20061;-69
2022/11/24 06:24:53;;;;;;;7.70;1.90;;;10.60;78.50;;;;;;5032657;28;20057;-69
2022/11/24 06:27:19;;;;;;;6.70;1.77;;;10.60;78.50;;;;;;5033200;28;20022;-69
2022/11/24 06:29:45;;;;;;;10.10;2.00;;;10.60;78.50;;;;;;5032663;28;20053;-69
2022/11/24 06:32:10;;;;;;;4.50;1.40;;;10.60;78.50;;;;;;5031858;28;20025;-69
2022/11/24 06:34:36;;;;;;;6.93;1.88;;;10.60;78.50;;;;;;5032766;28;20481;-69
2022/11/24 06:37:02;;;;;;;3.85;1.25;;;10.60;78.60;;;;;;5032656;28;20055;-69
2022/11/24 06:39:27;;;;;;;6.40;1.75;;;10.60;78.60;;;;;;5031712;28;20033;-69
2022/11/24 06:41:53;;;;;;;5.70;1.85;;;10.60;78.70;;;;;;5031510;28;20429;-69
2022/11/24 06:44:19;;;;;;;8.48;2.42;;;10.60;78.70;;;;;;5031247;28;20029;-69
2022/11/24 06:46:44;;;;;;;7.47;1.70;;;10.60;78.80;;;;;;5031338;28;20022;-69
2022/11/24 06:49:10;;;;;;;6.30;2.08;;;10.60;79.00;;;;;;5027599;28;20030;-69
2022/11/24 06:51:36;;;;;;;6.60;1.60;;;10.60;79.10;;;;;;5032515;28;20125;-69
2022/11/24 06:54:05;;;;;;;5.97;1.67;;;10.60;79.20;;;;;;5033352;28;20127;-69
2022/11/24 06:56:31;;;;;;;6.15;1.60;;;10.60;79.30;;;;;;5031988;28;20112;-71
2022/11/24 06:58:57;;;;;;;5.65;1.70;;;10.60;79.40;;;;;;5036505;28;20146;-69
2022/11/24 07:01:24;;;;;;;4.22;1.88;;;10.60;80.10;;;;;;5035955;28;20021;-69
2022/11/24 07:03:51;;;;;;;8.77;1.83;;;10.60;79.60;;;;;;5035743;28;20039;-69
2022/11/24 07:06:18;;;;;;;5.18;1.80;;;10.60;79.70;;;;;;5037580;28;20116;-70
2022/11/24 07:08:44;;;;;;;4.95;1.63;;;10.60;79.80;;;;;;5036213;28;20099;-70
2022/11/24 07:11:14;;;;;;;5.60;1.95;;;10.60;80.50;;;;;;5036886;28;20509;-70
2022/11/24 07:13:40;;;;;;;6.70;1.90;;;10.60;80.00;;;;;;5035773;28;20022;-70
2022/11/24 07:16:13;;;;;;;7.00;2.55;;;10.60;80.00;;;;;;5034933;28;20055;-71
2022/11/24 07:18:39;;;;;;;7.95;2.97;;;10.60;80.10;;;;;;5036712;28;20128;-71
2022/11/24 07:21:05;;;;;;;7.13;2.75;;;10.50;80.10;;;;;;5041867;28;20116;-70
2022/11/24 07:23:31;;;;;;;7.35;2.60;;;10.60;80.30;;;;;;5034459;28;20033;-70
2022/11/24 07:25:57;;;;;;;5.00;2.22;;;10.50;80.30;;;;;;5035721;28;20029;-70
2022/11/24 07:28:23;;;;;;;6.18;2.38;;;10.50;80.30;;;;;;5033837;28;20124;-70
2022/11/24 07:30:49;;;;;;;7.65;3.38;;;10.50;80.40;;;;;;5034802;28;20109;-70
2022/11/24 07:33:18;;;;;;;12.07;4.20;;;10.50;80.50;;;;;;5035145;28;20039;-70
2022/11/24 07:35:44;;;;;;;8.63;3.17;;;10.50;80.60;;;;;;5032233;28;20132;-70
2022/11/24 07:38:09;;;;;;;8.43;3.03;;;10.50;80.70;;;;;;5035172;28;20117;-70
2022/11/24 07:40:35;;;;;;;7.85;3.85;;;10.50;80.70;;;;;;5030080;28;20022;-70
2022/11/24 07:43:00;;;;;;;9.00;3.63;;;10.50;80.70;;;;;;5045247;28;20038;-70
2022/11/24 07:45:26;;;;;;;9.68;3.45;;;10.50;80.70;;;;;;5046955;28;20108;-70
2022/11/24 07:47:52;;;;;;;6.32;2.90;;;10.50;80.70;;;;;;5031341;28;20033;-71
2022/11/24 07:50:18;;;;;;;8.30;3.40;;;10.50;81.40;;;;;;5017798;28;20462;-70
2022/11/24 07:52:43;;;;;;;10.48;3.97;;;10.50;80.90;;;;;;5034253;28;20029;-70
2022/11/24 07:55:09;;;;;;;10.02;4.15;;;10.50;80.90;;;;;;5033500;28;20033;-71
2022/11/24 07:57:35;;;;;;;8.98;3.50;;;10.50;80.90;;;;;;5034314;28;20112;-72
2022/11/24 08:00:02;;;;;;;7.97;3.25;;;10.50;80.90;;;;;;5034194;28;20426;-72
2022/11/24 08:02:30;;;;;;;8.75;3.88;;;10.60;81.00;;;;;;5031263;28;20044;-70
2022/11/24 08:04:56;;;;;;;11.52;4.15;;;10.60;81.00;;;;;;5048287;28;20031;-70
2022/11/24 08:07:21;;;;;;;8.13;4.13;;;10.60;81.00;;;;;;5032269;28;20025;-70
2022/11/24 08:09:49;;;;;;;10.32;4.68;;;10.60;80.90;;;;;;5031559;28;20121;-70
2022/11/24 08:12:16;;;;;;;9.13;4.88;;;10.70;80.90;;;;;;5033699;28;20072;-70
2022/11/24 08:14:42;;;;;;;10.32;4.50;;;10.70;80.80;;;;;;5033861;28;20101;-70
2022/11/24 08:17:08;;;;;;;11.98;4.82;;;10.70;80.80;;;;;;5033639;28;20032;-70
2022/11/24 08:19:33;;;;;;;10.07;4.68;;;10.70;80.80;;;;;;5032114;28;20049;-71
2022/11/24 08:21:59;;;;;;;11.25;5.15;;;10.70;80.80;;;;;;5018244;28;20035;-73
2022/11/24 08:24:26;;;;;;;9.73;4.53;;;10.70;80.80;;;;;;5036371;28;20037;-72
2022/11/24 08:26:52;;;;;;;9.65;4.75;;;10.70;80.90;;;;;;5024197;28;20053;-72
2022/11/24 08:29:17;;;;;;;10.10;4.80;;;10.70;80.80;;;;;;5032255;28;20025;-72
2022/11/24 08:31:43;;;;;;;10.77;4.38;;;10.70;80.80;;;;;;5032858;28;20033;-73
2022/11/24 08:34:09;;;;;;;9.45;4.20;;;10.70;80.80;;;;;;5031486;28;20064;-73
2022/11/24 08:36:35;;;;;;;11.77;3.95;;;10.80;81.40;;;;;;5031371;28;20037;-69
2022/11/24 08:39:01;;;;;;;10.52;4.40;;;10.80;80.70;;;;;;5030359;28;20030;-68
2022/11/24 08:41:28;;;;;;;8.52;3.83;;;10.90;80.70;;;;;;5029569;28;20034;-69
2022/11/24 08:43:54;;;;;;;10.40;3.70;;;10.90;80.60;;;;;;5029861;28;20087;-70
2022/11/24 08:46:20;;;;;;;8.52;3.15;;;10.90;80.50;;;;;;5032824;28;20025;-69
2022/11/24 08:48:53;;;;;;;9.18;3.65;;;10.90;80.50;;;;;;5031571;28;20036;-69
2022/11/24 08:51:22;;;;;;;9.25;3.35;;;10.90;80.50;;;;;;5032553;28;20041;-69
2022/11/24 08:53:47;;;;;;;9.75;3.72;;;10.90;80.60;;;;;;5030626;28;20442;-69
2022/11/24 08:56:13;;;;;;;10.65;4.22;;;10.90;80.50;;;;;;5035555;28;20041;-69
2022/11/24 08:58:40;;;;;;;8.32;3.58;;;10.90;81.20;;;;;;5032607;28;20041;-69
2022/11/24 09:01:09;;;;;;;10.07;3.35;;;10.90;80.60;;;;;;5030308;28;20094;-69
2022/11/24 09:03:36;;;;;;;7.65;3.03;;;10.90;80.60;;;;;;5032163;28;20021;-71
2022/11/24 09:06:02;;;;;;;9.00;3.70;;;11.00;80.70;;;;;;5028867;28;20026;-69
2022/11/24 09:08:29;;;;;;;7.00;3.17;;;11.00;80.70;;;;;;5044828;28;20039;-69
2022/11/24 09:10:59;;;;;;;10.40;2.92;;;11.00;80.70;;;;;;5034216;28;20033;-69
2022/11/24 09:13:24;;;;;;;11.35;3.13;;;11.10;81.30;;;;;;5034035;28;20037;-69
2022/11/24 09:15:50;;;;;;;8.15;3.00;;;11.10;80.70;;;;;;5034354;28;20030;-69
2022/11/24 09:18:16;;;;;;;6.57;2.80;;;11.10;80.60;;;;;;5034414;28;20026;-69
2022/11/24 09:20:41;;;;;;;8.30;3.17;;;11.10;80.50;;;;;;5031672;28;20036;-69
2022/11/24 09:23:07;;;;;;;10.35;3.03;;;11.10;80.50;;;;;;5032556;28;20018;-69
2022/11/24 09:25:32;;;;;;;7.90;2.90;;;11.10;80.60;;;;;;5033481;28;20472;-69
2022/11/24 09:27:58;;;;;;;8.00;3.05;;;11.10;80.60;;;;;;5015799;28;20041;-69
2022/11/24 09:30:25;;;;;;;10.70;3.58;;;11.10;80.60;;;;;;5031687;28;20116;-68
2022/11/24 09:32:50;;;;;;;8.43;2.85;;;11.00;80.60;;;;;;5031747;28;20021;-68
2022/11/24 09:35:16;;;;;;;11.90;3.55;;;11.00;80.60;;;;;;5033151;28;20397;-68
2022/11/24 09:37:44;;;;;;;8.48;3.15;;;11.00;80.60;;;;;;5032282;28;20472;-68
2022/11/24 09:40:13;;;;;;;8.50;3.25;;;11.00;80.70;;;;;;5031728;28;20029;-69
2022/11/24 09:42:53;;;;;;;10.30;3.10;;;11.00;80.70;;;;;;5032145;28;20030;-69
2022/11/24 09:45:48;;;;;;;8.32;2.80;;;11.10;80.80;;;;;;5032806;28;20499;-68
2022/11/24 09:48:25;;;;;;;9.45;3.03;;;11.10;80.70;;;;;;5030254;28;20038;-69
2022/11/24 09:50:51;;;;;;;8.35;2.85;;;11.20;80.70;;;;;;5029786;28;20043;-67
2022/11/24 09:53:33;;;;;;;10.65;3.13;;;11.40;80.40;;;;;;5031031;28;20037;-69
2022/11/24 09:56:10;;;;;;;7.57;2.25;;;11.60;80.00;;;;;;5030607;28;20037;-69
2022/11/24 09:58:49;;;;;;;9.15;2.38;;;11.80;79.70;;;;;;5020618;28;20025;-69
2022/11/24 10:01:45;;;;;;;7.35;2.28;;;11.90;79.40;;;;;;5033779;28;20040;-69
2022/11/24 10:04:24;;;;;;;9.77;2.40;;;12.10;78.90;;;;;;5017479;28;20041;-69
2022/11/24 10:07:25;;;;;;;8.15;2.33;;;12.30;79.20;;;;;;5045780;28;20017;-69
2022/11/24 10:09:50;;;;;;;7.65;2.33;;;12.50;78.00;;;;;;5040328;28;20018;-68
2022/11/24 10:12:35;;;;;;;9.18;2.90;;;12.70;77.70;;;;;;5032783;28;20035;-68
2022/11/24 10:15:21;;;;;;;9.77;2.25;;;12.90;77.40;;;;;;5027270;28;20044;-68
2022/11/24 10:18:11;;;;;;;10.07;2.30;;;13.00;76.90;;;;;;5036812;28;20030;-69
2022/11/24 10:21:01;;;;;;;8.85;2.60;;;13.10;76.70;;;;;;5033044;28;20033;-69
2022/11/24 10:24:05;;;;;;;9.10;2.58;;;13.20;76.20;;;;;;5034021;28;20060;-69
2022/11/24 10:26:39;;;;;;;9.15;2.20;;;13.30;76.70;;;;;;4992313;28;20159;-68
2022/11/24 10:29:16;;;;;;;8.43;1.75;;;13.40;75.90;;;;;;4993259;28;20121;-69
2022/11/24 10:31:43;;;;;;;8.75;2.47;;;13.40;75.60;;;;;;4997889;28;20383;-69
2022/11/24 10:34:16;;;;;;;9.98;2.83;;;13.40;75.70;;;;;;4995623;28;20077;-68
2022/11/24 10:37:05;;;;;;;8.20;1.80;;;13.50;75.60;;;;;;4996737;28;20046;-68
2022/11/24 10:39:49;;;;;;;8.27;2.08;;;13.60;75.40;;;;;;4997589;28;20042;-69
2022/11/24 10:42:22;;;;;;;8.52;2.67;;;13.60;75.10;;;;;;4996374;28;20085;-69
2022/11/24 10:45:02;;;;;;;8.45;2.10;;;13.70;74.80;;;;;;4996672;28;20018;-68
2022/11/24 10:47:29;;;;;;;9.73;2.50;;;13.80;74.50;;;;;;4996415;28;20487;-69
2022/11/24 10:50:02;;;;;;;7.88;2.08;;;13.80;74.40;;;;;;4996031;28;20072;-69
2022/11/24 10:52:30;;;;;;;8.32;2.10;;;13.90;74.20;;;;;;4995607;28;20061;-68
2022/11/24 10:55:03;;;;;;;9.93;2.30;;;13.90;74.10;;;;;;4998938;28;20037;-68
2022/11/24 10:57:32;;;;;;;9.50;1.92;;;13.90;74.00;;;;;;5004058;28;20117;-69
2022/11/24 10:59:58;;;;;;;10.23;2.67;;;13.90;74.10;;;;;;4981887;28;20053;-69
2022/11/24 11:02:33;;;;;;;8.98;2.08;;;13.90;74.00;;;;;;5012817;28;20038;-68
2022/11/24 11:05:31;;;;;;;7.95;2.15;;;13.90;73.70;;;;;;5026775;28;20087;-68
2022/11/24 11:08:18;;;;;;;9.52;2.50;;;13.90;73.40;;;;;;5035912;28;20029;-68
2022/11/24 11:10:46;;;;;;;6.75;2.05;;;13.90;73.30;;;;;;5036585;28;20121;-68
2022/11/24 11:13:28;;;;;;;11.65;2.55;;;13.80;73.40;;;;;;5031641;28;20029;-69
2022/11/24 11:15:55;;;;;;;8.23;2.22;;;13.70;73.50;;;;;;5034885;28;20162;-69
2022/11/24 11:18:25;;;;;;;8.25;2.30;;;13.60;73.70;;;;;;5035199;28;20029;-68
2022/11/24 11:20:54;;;;;;;8.75;2.72;;;13.60;73.90;;;;;;5034731;28;20037;-69
2022/11/24 11:23:27;;;;;;;8.90;2.80;;;13.50;73.90;;;;;;5032076;28;20354;-68
2022/11/24 11:26:24;;;;;;;14.65;3.10;;;13.40;74.00;;;;;;5034490;28;20037;-68
2022/11/24 11:29:24;;;;;;;10.05;2.58;;;13.40;74.10;;;;;;5045675;28;20030;-68
2022/11/24 11:31:58;;;;;;;11.45;1.90;;;13.30;74.10;;;;;;5031684;28;20107;-67
2022/11/24 11:34:24;;;;;;;10.40;2.58;;;13.30;74.20;;;;;;5034852;28;20063;-68
2022/11/24 11:36:53;;;;;;;9.70;2.03;;;13.20;74.20;;;;;;5033695;28;20025;-68
2022/11/24 11:39:38;;;;;;;11.13;2.78;;;13.20;74.30;;;;;;5046011;28;20026;-68
2022/11/24 11:42:16;;;;;;;10.38;2.88;;;13.10;74.20;;;;;;5033532;28;20094;-71
2022/11/24 11:44:54;;;;;;;10.45;2.75;;;13.10;74.30;;;;;;5035830;28;20061;-68
2022/11/24 11:47:32;;;;;;;11.98;2.88;;;13.00;74.30;;;;;;5034133;28;20025;-68
2022/11/24 11:49:57;;;;;;;12.43;2.83;;;13.00;74.30;;;;;;5026933;28;20044;-68
2022/11/24 11:52:32;;;;;;;9.68;2.25;;;12.90;74.40;;;;;;5032266;28;20120;-68
2022/11/24 11:55:16;;;;;;;13.82;2.83;;;12.90;74.40;;;;;;5028650;28;20033;-68
2022/11/24 11:58:06;;;;;;;14.18;2.88;;;12.90;75.20;;;;;;5034999;28;20045;-68
2022/11/24 12:00:38;;;;;;;7.93;2.40;;;12.80;74.60;;;;;;5034032;28;20415;-68
2022/11/24 12:03:25;;;;;;;11.35;2.38;;;12.80;74.60;;;;;;5037311;28;20071;-68
2022/11/24 12:06:23;;;;;;;16.27;2.95;;;12.80;74.60;;;;;;5034953;28;20435;-68
2022/11/24 12:09:09;;;;;;;11.70;2.70;;;12.70;74.60;;;;;;5030295;28;20033;-68
2022/11/24 12:11:46;;;;;;;12.27;2.80;;;12.70;74.60;;;;;;5037766;28;20033;-68
2022/11/24 12:14:32;;;;;;;13.85;3.00;;;12.70;74.70;;;;;;5039781;28;20038;-68
2022/11/24 12:17:16;;;;;;;12.18;2.92;;;12.70;74.70;;;;;;5039652;28;20025;-68
2022/11/24 12:20:17;;;;;;;16.38;2.97;;;12.70;74.70;;;;;;5032303;28;20041;-68
2022/11/24 12:23:04;;;;;;;8.73;2.60;;;12.70;74.70;;;;;;5033110;28;20021;-68
2022/11/24 12:25:49;;;;;;;13.18;3.75;;;12.60;74.70;;;;;;5032700;28;20031;-68
2022/11/24 12:28:37;;;;;;;10.10;2.42;;;12.70;74.70;;;;;;5026362;28;20500;-69
2022/11/24 12:31:11;;;;;;;11.98;2.63;;;12.60;74.70;;;;;;5034276;28;20057;-68
2022/11/24 12:33:58;;;;;;;12.73;2.78;;;12.60;74.70;;;;;;5034520;28;20345;-68
2022/11/24 12:36:58;;;;;;;10.93;3.45;;;12.60;74.70;;;;;;5033471;28;20025;-68
2022/11/24 12:39:34;;;;;;;13.60;2.80;;;12.60;74.80;;;;;;5033300;28;20055;-68
2022/11/24 12:42:00;;;;;;;11.63;2.50;;;12.60;74.90;;;;;;5033919;28;20083;-68
2022/11/24 12:44:46;;;;;;;15.85;3.97;;;12.60;74.90;;;;;;5035173;28;20017;-68
2022/11/24 12:47:26;;;;;;;15.43;2.75;;;12.60;74.90;;;;;;5028414;28;20030;-68
2022/11/24 12:50:09;;;;;;;10.47;2.60;;;12.60;74.80;;;;;;5032322;28;20087;-68
2022/11/24 12:52:49;;;;;;;14.10;2.80;;;12.60;74.80;;;;;;5034301;28;20299;-67
2022/11/24 12:55:20;;;;;;;9.18;3.00;;;12.60;74.80;;;;;;5036387;28;20103;-67